createdAt,value
2022-12-11T00:02:05.139Z,0.40
2022-12-11T00:04:32.083Z,0.40
2022-12-11T00:06:58.967Z,0.40
2022-12-11T00:09:25.901Z,0.40
2022-12-11T00:11:52.829Z,0.40
2022-12-11T00:14:19.733Z,0.50
2022-12-11T00:16:48.155Z,0.50
2022-12-11T00:19:15.614Z,0.40
2022-12-11T00:21:42.505Z,0.50
2022-12-11T00:24:09.493Z,0.50
2022-12-11T00:26:36.377Z,0.50
2022-12-11T00:29:03.641Z,0.50
2022-12-11T00:31:30.853Z,0.50
2022-12-11T00:33:57.877Z,0.40
2022-12-11T00:36:26.347Z,0.40
2022-12-11T00:38:53.895Z,0.50
2022-12-11T00:41:21.021Z,0.50
2022-12-11T00:43:47.903Z,0.50
2022-12-11T00:46:14.847Z,0.50
2022-12-11T00:48:42.055Z,0.50
2022-12-11T00:51:09.175Z,0.50
2022-12-11T00:53:37.262Z,0.50
2022-12-11T00:56:10.737Z,0.50
2022-12-11T00:58:37.619Z,0.50
2022-12-11T01:01:13.262Z,0.50
2022-12-11T01:03:42.809Z,0.50
2022-12-11T01:06:16.166Z,0.50
2022-12-11T01:08:44.030Z,0.50
2022-12-11T01:11:12.660Z,0.40
2022-12-11T01:13:41.555Z,0.50
2022-12-11T01:16:14.243Z,0.40
2022-12-11T01:18:41.204Z,0.50
2022-12-11T01:21:13.412Z,0.50
2022-12-11T01:23:40.907Z,0.60
2022-12-11T01:26:13.427Z,0.60
2022-12-11T01:28:40.772Z,0.50
2022-12-11T01:31:15.249Z,0.50
2022-12-11T01:33:42.686Z,0.50
2022-12-11T01:36:20.176Z,0.50
2022-12-11T01:38:47.994Z,0.50
2022-12-11T01:41:15.566Z,0.50
2022-12-11T01:43:58.552Z,0.50
2022-12-11T01:46:25.773Z,0.60
2022-12-11T01:48:52.915Z,0.50
2022-12-11T01:51:19.803Z,0.50
2022-12-11T01:53:52.867Z,0.50
2022-12-11T01:56:19.745Z,0.50
2022-12-11T01:58:48.008Z,0.50
2022-12-11T02:04:03.514Z,0.50
2022-12-11T02:06:34.159Z,0.50
2022-12-11T02:09:01.196Z,0.50
2022-12-11T02:11:35.935Z,0.50
2022-12-11T02:14:13.775Z,0.50
2022-12-11T02:16:56.052Z,0.50
2022-12-11T02:19:52.016Z,0.60
2022-12-11T02:22:42.014Z,0.60
2022-12-11T02:25:54.058Z,0.50
2022-12-11T02:28:22.302Z,0.60
2022-12-11T02:30:52.280Z,0.60
2022-12-11T02:33:22.324Z,0.60
2022-12-11T02:35:49.252Z,0.60
2022-12-11T02:38:20.596Z,0.60
2022-12-11T02:40:47.509Z,0.60
2022-12-11T02:43:14.797Z,0.60
2022-12-11T02:45:42.527Z,0.60
2022-12-11T02:48:10.015Z,0.60
2022-12-11T02:50:37.982Z,0.60
2022-12-11T02:53:04.957Z,0.70
2022-12-11T02:55:31.985Z,0.60
2022-12-11T02:58:18.604Z,0.60
2022-12-11T03:00:45.827Z,0.60
2022-12-11T03:03:13.471Z,0.70
2022-12-11T03:05:40.609Z,0.60
2022-12-11T03:08:07.536Z,0.60
2022-12-11T03:10:34.524Z,0.70
2022-12-11T03:13:01.859Z,0.70
2022-12-11T03:15:52.832Z,0.60
2022-12-11T03:18:36.922Z,0.70
2022-12-11T03:21:05.742Z,0.70
2022-12-11T03:23:48.572Z,0.70
2022-12-11T03:26:15.961Z,0.70
2022-12-11T03:28:47.437Z,0.70
2022-12-11T03:31:22.664Z,0.70
2022-12-11T03:33:49.609Z,0.70
2022-12-11T03:36:22.473Z,0.70
2022-12-11T03:39:02.380Z,0.80
2022-12-11T03:41:29.762Z,0.70
2022-12-11T03:43:58.652Z,0.70
2022-12-11T03:46:30.658Z,0.70
2022-12-11T03:49:01.250Z,0.70
2022-12-11T03:51:30.022Z,0.70
2022-12-11T03:53:56.929Z,0.70
2022-12-11T03:56:24.446Z,0.80
2022-12-11T03:58:51.359Z,0.80
2022-12-11T04:01:18.306Z,0.70
2022-12-11T04:03:45.651Z,0.80
2022-12-11T04:06:12.587Z,0.70
2022-12-11T04:08:39.500Z,0.70
2022-12-11T04:11:25.008Z,0.80
2022-12-11T04:14:12.070Z,0.70
2022-12-11T04:16:38.968Z,0.80
2022-12-11T04:19:41.296Z,0.80
2022-12-11T04:22:27.924Z,0.70
2022-12-11T04:24:54.870Z,0.80
2022-12-11T04:27:40.865Z,0.80
2022-12-11T04:30:12.417Z,0.80
2022-12-11T04:32:39.368Z,0.80
2022-12-11T04:35:08.734Z,0.80
2022-12-11T04:37:36.200Z,0.80
2022-12-11T04:40:04.809Z,0.80
2022-12-11T04:42:32.024Z,0.80
2022-12-11T04:44:58.974Z,0.80
2022-12-11T06:04:08.755Z,0.90
2022-12-11T06:06:35.808Z,0.90
2022-12-11T06:09:03.522Z,0.90
2022-12-11T06:11:31.624Z,1.00
2022-12-11T06:13:58.727Z,1.00
2022-12-11T06:16:25.837Z,1.00
2022-12-11T06:18:55.825Z,1.00
2022-12-11T06:21:30.739Z,1.00
2022-12-11T06:23:59.468Z,1.00
2022-12-11T06:26:26.686Z,1.00
2022-12-11T06:28:53.572Z,0.90
2022-12-11T06:31:20.624Z,1.00
2022-12-11T06:33:47.876Z,1.00
2022-12-11T06:36:19.112Z,1.00
2022-12-11T06:38:49.423Z,1.00
2022-12-11T06:41:16.977Z,1.00
2022-12-11T06:43:43.997Z,1.00
2022-12-11T06:46:15.972Z,1.00
2022-12-11T06:48:43.299Z,1.10
2022-12-11T06:51:12.876Z,1.10
2022-12-11T06:53:40.195Z,1.10
2022-12-11T06:56:15.611Z,1.20
2022-12-11T06:58:43.981Z,1.20
2022-12-11T07:01:19.487Z,1.20
2022-12-11T07:03:46.997Z,1.10
2022-12-11T07:06:14.114Z,1.10
2022-12-11T07:08:41.320Z,1.10
2022-12-11T07:11:10.249Z,1.00
2022-12-11T07:13:37.206Z,1.10
2022-12-11T07:16:05.813Z,1.10
2022-12-11T07:18:32.849Z,1.10
2022-12-11T07:21:02.574Z,1.10
2022-12-11T07:23:29.606Z,1.00
2022-12-11T07:25:56.539Z,1.00
2022-12-11T07:28:23.682Z,1.00
2022-12-11T07:30:50.574Z,1.00
2022-12-11T07:33:17.468Z,1.00
2022-12-11T07:35:44.892Z,1.00
2022-12-11T07:38:11.854Z,0.90
2022-12-11T07:40:38.737Z,1.00
2022-12-11T07:43:05.663Z,1.00
2022-12-11T07:45:32.566Z,1.00
2022-12-11T07:47:59.539Z,1.00
2022-12-11T07:50:26.434Z,0.90
2022-12-11T07:52:53.374Z,0.90
2022-12-11T07:55:20.370Z,1.00
2022-12-11T07:57:47.257Z,1.00
2022-12-11T08:00:14.373Z,1.00
2022-12-11T08:02:41.333Z,1.00
2022-12-11T08:05:08.818Z,1.00
2022-12-11T08:07:36.497Z,1.00
2022-12-11T08:10:04.441Z,1.00
2022-12-11T08:12:31.902Z,1.00
2022-12-11T08:14:58.830Z,1.00
2022-12-11T08:17:30.098Z,1.00
2022-12-11T08:19:58.760Z,1.00
2022-12-11T08:22:25.719Z,1.00
2022-12-11T08:24:52.642Z,1.00
2022-12-11T08:27:19.649Z,1.10
2022-12-11T08:29:47.584Z,1.10
2022-12-11T08:32:16.859Z,1.10
2022-12-11T08:34:44.309Z,1.10
2022-12-11T08:37:11.290Z,1.10
2022-12-11T08:39:38.178Z,1.20
2022-12-11T08:42:05.590Z,1.20
2022-12-11T08:44:32.623Z,1.20
2022-12-11T08:46:59.513Z,1.20
2022-12-11T08:49:28.670Z,1.10
2022-12-11T08:51:59.662Z,1.10
2022-12-11T08:54:26.564Z,1.10
2022-12-11T08:56:57.731Z,1.10
2022-12-11T08:59:25.873Z,1.20
2022-12-11T09:01:52.845Z,1.10
2022-12-11T09:04:19.781Z,1.00
2022-12-11T09:06:47.070Z,1.00
2022-12-11T09:09:14.780Z,1.00
2022-12-11T09:11:41.760Z,1.00
2022-12-11T09:14:08.779Z,1.00
2022-12-11T09:16:37.968Z,1.00
2022-12-11T09:19:06.131Z,1.10
2022-12-11T09:21:33.108Z,1.10
2022-12-11T09:24:01.056Z,1.00
2022-12-11T09:26:29.166Z,1.00
2022-12-11T09:28:56.295Z,1.00
2022-12-11T09:31:25.424Z,1.10
2022-12-11T09:33:54.675Z,1.00
2022-12-11T09:36:21.595Z,1.10
2022-12-11T09:38:48.561Z,1.00
2022-12-11T09:41:21.710Z,1.00
2022-12-11T09:43:54.534Z,1.00
2022-12-11T09:46:24.650Z,1.00
2022-12-11T09:48:53.744Z,1.00
2022-12-11T09:51:39.250Z,1.00
2022-12-11T09:54:06.450Z,1.00
2022-12-11T09:56:34.269Z,1.00
2022-12-11T09:59:25.261Z,1.00
2022-12-11T10:02:10.328Z,1.10
2022-12-11T10:05:06.718Z,1.00
2022-12-11T10:07:36.800Z,1.10
2022-12-11T10:10:38.853Z,1.10
2022-12-11T10:13:24.433Z,1.10
2022-12-11T10:16:06.077Z,1.10
2022-12-11T10:18:33.139Z,1.10
2022-12-11T10:21:01.708Z,1.10
2022-12-11T10:23:35.694Z,1.10
2022-12-11T10:26:13.453Z,1.10
2022-12-11T10:28:40.462Z,1.10
2022-12-11T10:31:40.321Z,1.10
2022-12-11T10:34:14.064Z,1.10
2022-12-11T10:36:41.946Z,1.10
2022-12-11T10:39:17.254Z,1.10
2022-12-11T10:41:46.738Z,1.10
2022-12-11T10:44:21.269Z,1.10
2022-12-11T10:47:00.523Z,1.10
2022-12-11T10:49:30.232Z,1.00
2022-12-11T10:51:57.715Z,1.00
2022-12-11T10:54:33.722Z,1.10
2022-12-11T10:57:01.824Z,1.00
2022-12-11T10:59:43.307Z,1.10
2022-12-11T11:02:25.303Z,1.00
2022-12-11T11:04:52.645Z,1.00
2022-12-11T11:07:30.816Z,1.00
2022-12-11T11:10:23.954Z,0.90
2022-12-11T11:12:55.456Z,0.90
2022-12-11T11:15:27.838Z,1.00
2022-12-11T11:17:56.393Z,1.00
2022-12-11T11:20:25.773Z,1.00
2022-12-11T11:22:54.442Z,1.00
2022-12-11T11:25:23.168Z,1.00
2022-12-11T11:28:04.068Z,1.00
2022-12-11T11:30:40.746Z,1.00
2022-12-11T11:33:34.443Z,1.00
2022-12-11T11:36:06.877Z,1.00
2022-12-11T11:38:42.455Z,1.10
2022-12-11T11:41:15.244Z,1.20
2022-12-11T11:43:53.561Z,1.20
2022-12-11T11:46:36.755Z,1.20
2022-12-11T11:49:26.994Z,1.20
2022-12-11T11:52:01.983Z,1.30
2022-12-11T11:54:37.287Z,1.20
2022-12-11T11:57:16.780Z,1.30
2022-12-11T11:59:52.449Z,1.20
2022-12-11T12:02:19.395Z,1.20
2022-12-11T12:04:47.478Z,1.30
2022-12-11T12:07:23.374Z,1.20
2022-12-11T12:10:02.864Z,1.30
2022-12-11T12:12:38.779Z,1.30
2022-12-11T12:15:34.876Z,1.30
2022-12-11T12:18:28.872Z,1.20
2022-12-11T12:21:18.015Z,1.20
2022-12-11T12:23:54.841Z,1.30
2022-12-11T12:26:37.833Z,1.30
2022-12-11T12:29:10.586Z,1.30
2022-12-11T12:31:43.562Z,1.20
2022-12-11T12:34:23.374Z,1.20
2022-12-11T12:37:21.896Z,1.20
2022-12-11T12:40:18.065Z,1.30
2022-12-11T12:42:53.538Z,1.30
2022-12-11T12:45:31.647Z,1.30
2022-12-11T12:47:58.730Z,1.40
2022-12-11T12:50:27.049Z,1.50
2022-12-11T12:52:54.147Z,1.50
2022-12-11T12:55:27.212Z,1.40
2022-12-11T12:58:00.569Z,1.40
2022-12-11T13:00:43.947Z,1.30
2022-12-11T13:03:20.965Z,1.40
2022-12-11T13:06:05.884Z,1.40
2022-12-11T13:08:48.616Z,1.30
2022-12-11T13:11:16.843Z,1.40
2022-12-11T13:13:53.229Z,1.50
2022-12-11T13:16:26.470Z,1.50
2022-12-11T13:18:53.525Z,1.40
2022-12-11T13:21:38.416Z,1.40
2022-12-11T13:24:26.247Z,1.30
2022-12-11T13:26:53.201Z,1.40
2022-12-11T13:29:41.316Z,1.40
2022-12-11T13:32:08.084Z,1.40
2022-12-11T13:34:41.420Z,1.50
2022-12-11T13:37:26.201Z,1.50
2022-12-11T13:39:53.267Z,1.50
2022-12-11T13:42:34.701Z,1.50
2022-12-11T13:45:02.092Z,1.50
2022-12-11T13:47:28.997Z,1.50
2022-12-11T13:49:59.850Z,1.50
2022-12-11T13:52:27.794Z,1.50
2022-12-11T13:54:55.811Z,1.60
2022-12-11T13:57:25.905Z,1.50
2022-12-11T13:59:54.280Z,1.50
2022-12-11T14:02:29.700Z,1.60
2022-12-11T14:05:01.157Z,1.60
2022-12-11T14:07:36.161Z,1.60
2022-12-11T14:10:08.180Z,1.60
2022-12-11T14:12:35.519Z,1.60
2022-12-11T14:15:03.234Z,1.50
2022-12-11T14:17:36.573Z,1.40
2022-12-11T14:20:07.470Z,1.50
2022-12-11T14:22:34.648Z,1.60
2022-12-11T14:25:03.813Z,1.60
2022-12-11T14:27:30.966Z,1.60
2022-12-11T14:29:57.903Z,1.50
2022-12-11T14:32:32.118Z,1.50
2022-12-11T14:34:59.059Z,1.40
2022-12-11T14:37:25.957Z,1.50
2022-12-11T14:40:16.972Z,1.50
2022-12-11T14:42:46.867Z,1.60
2022-12-11T14:45:30.928Z,1.60
2022-12-11T14:47:57.879Z,1.50
2022-12-11T14:50:31.457Z,1.50
2022-12-11T14:53:00.506Z,1.50
2022-12-11T14:55:33.218Z,1.50
2022-12-11T14:58:02.492Z,1.50
2022-12-11T15:00:32.179Z,1.50
2022-12-11T15:03:18.910Z,1.40
2022-12-11T15:05:53.809Z,1.40
2022-12-11T15:08:28.307Z,1.40
2022-12-11T15:11:05.471Z,1.40
2022-12-11T15:13:32.824Z,1.50
2022-12-11T15:16:00.473Z,1.50
2022-12-11T15:18:27.772Z,1.50
2022-12-11T15:20:59.961Z,1.50
2022-12-11T15:23:27.673Z,1.50
2022-12-11T15:25:59.151Z,1.50
2022-12-11T15:28:33.948Z,1.50
2022-12-11T15:31:03.476Z,1.50
2022-12-11T15:33:34.410Z,1.50
2022-12-11T15:36:26.966Z,1.50
2022-12-11T15:38:54.545Z,1.50
2022-12-11T15:41:23.968Z,1.50
2022-12-11T15:43:58.676Z,1.60
2022-12-11T15:46:26.348Z,1.50
2022-12-11T15:48:53.646Z,1.60
2022-12-11T15:51:20.570Z,1.50
2022-12-11T15:53:47.461Z,1.50
2022-12-11T15:56:18.443Z,1.60
2022-12-11T15:58:45.818Z,1.60
2022-12-11T16:01:12.896Z,1.60
2022-12-11T16:03:39.849Z,1.50
2022-12-11T16:06:06.924Z,1.50
2022-12-11T16:08:33.876Z,1.50
2022-12-11T16:11:00.817Z,1.50
2022-12-11T16:13:27.763Z,1.50
2022-12-11T16:15:54.803Z,1.50
2022-12-11T16:18:22.782Z,1.60
2022-12-11T16:20:50.251Z,1.50
2022-12-11T16:23:17.478Z,1.50
2022-12-11T16:25:45.646Z,1.50
2022-12-11T16:28:14.256Z,1.50
2022-12-11T16:30:42.236Z,1.50
2022-12-11T16:33:12.854Z,1.50
2022-12-11T16:35:41.769Z,1.40
2022-12-11T16:38:10.113Z,1.40
2022-12-11T16:40:37.869Z,1.50
2022-12-11T16:43:08.492Z,1.50
2022-12-11T16:45:35.530Z,1.50
2022-12-11T16:48:03.622Z,1.50
2022-12-11T16:50:31.369Z,1.50
2022-12-11T16:52:58.319Z,1.50
2022-12-11T16:55:25.238Z,1.40
2022-12-11T16:57:52.366Z,1.50
2022-12-11T17:00:19.871Z,1.40
2022-12-11T17:02:47.052Z,1.50
2022-12-11T17:05:14.264Z,1.50
2022-12-11T17:07:41.289Z,1.50
2022-12-11T17:10:08.613Z,1.60
2022-12-11T17:12:35.608Z,1.50
2022-12-11T17:15:02.514Z,1.40
2022-12-11T17:17:29.391Z,1.40
2022-12-11T17:19:56.343Z,1.40
2022-12-11T17:22:23.244Z,1.40
2022-12-11T17:24:50.141Z,1.40
2022-12-11T17:27:17.050Z,1.40
2022-12-11T17:29:43.945Z,1.50
2022-12-11T17:32:11.213Z,1.50
2022-12-11T17:34:38.871Z,1.40
2022-12-11T17:37:06.057Z,1.40
2022-12-11T17:39:32.960Z,1.40
2022-12-11T17:41:59.898Z,1.40
2022-12-11T17:44:30.592Z,1.40
2022-12-11T17:46:58.655Z,1.30
2022-12-11T17:49:25.750Z,1.30
2022-12-11T17:51:55.537Z,1.30
2022-12-11T17:54:23.699Z,1.20
2022-12-11T17:56:51.155Z,1.30
2022-12-11T17:59:18.061Z,1.20
2022-12-11T18:01:45.033Z,1.30
2022-12-11T18:04:12.263Z,1.30
2022-12-11T18:06:39.252Z,1.30
2022-12-11T18:09:06.628Z,1.20
2022-12-11T18:11:33.540Z,1.30
2022-12-11T18:14:00.791Z,1.30
2022-12-11T18:16:33.789Z,1.30
2022-12-11T18:19:00.832Z,1.30
2022-12-11T18:21:31.116Z,1.40
2022-12-11T18:23:58.722Z,1.40
2022-12-11T18:26:25.730Z,1.40
2022-12-11T18:28:53.141Z,1.30
2022-12-11T18:31:21.094Z,1.30
2022-12-11T18:33:48.362Z,1.30
2022-12-11T18:36:16.935Z,1.20
2022-12-11T18:38:43.863Z,1.30
2022-12-11T18:41:12.282Z,1.20
2022-12-11T18:43:39.677Z,1.30
2022-12-11T18:46:10.491Z,1.30
2022-12-11T18:48:37.466Z,1.30
2022-12-11T18:51:08.774Z,1.40
2022-12-11T18:53:36.695Z,1.40
2022-12-11T18:56:12.152Z,1.40
2022-12-11T18:58:39.246Z,1.40
2022-12-11T19:01:11.944Z,1.40
2022-12-11T19:03:38.877Z,1.40
2022-12-11T19:06:09.463Z,1.40
2022-12-11T19:08:37.041Z,1.50
2022-12-11T19:11:05.712Z,1.50
2022-12-11T19:13:33.177Z,1.50
2022-12-11T19:16:00.303Z,1.40
2022-12-11T19:18:27.280Z,1.40
2022-12-11T19:21:03.157Z,1.40
2022-12-11T19:23:35.267Z,1.40
2022-12-11T19:26:02.570Z,1.30
2022-12-11T19:28:29.674Z,1.30
2022-12-11T19:30:56.695Z,1.30
2022-12-11T19:33:23.756Z,1.30
2022-12-11T19:35:59.878Z,1.30
2022-12-11T19:38:26.769Z,1.30
2022-12-11T19:40:54.199Z,1.30
2022-12-11T19:43:21.092Z,1.20
2022-12-11T19:45:48.324Z,1.20
2022-12-11T19:48:15.613Z,1.20
2022-12-11T19:50:42.516Z,1.30
2022-12-11T19:53:09.408Z,1.20
2022-12-11T19:55:36.697Z,1.10
2022-12-11T19:58:03.600Z,1.10
2022-12-11T20:00:30.566Z,1.20
2022-12-11T20:02:57.529Z,1.30
2022-12-11T20:05:24.457Z,1.20
2022-12-11T20:07:52.256Z,1.20
2022-12-11T20:10:19.190Z,1.20
2022-12-11T20:12:46.711Z,1.10
2022-12-11T20:15:14.055Z,1.10
2022-12-11T20:17:44.691Z,1.10
2022-12-11T20:20:11.864Z,1.20
2022-12-11T20:22:39.638Z,1.20
2022-12-11T20:25:07.496Z,1.20
2022-12-11T20:27:34.728Z,1.20
2022-12-11T20:30:01.800Z,1.20
2022-12-11T20:32:28.742Z,1.20
2022-12-11T20:34:56.729Z,1.20
2022-12-11T20:37:24.110Z,1.20
2022-12-11T20:39:51.045Z,1.20
2022-12-11T20:42:17.985Z,1.20
2022-12-11T20:44:49.027Z,1.10
2022-12-11T20:47:19.747Z,1.10
2022-12-11T20:49:47.943Z,1.20
2022-12-11T20:52:15.266Z,1.20
2022-12-11T20:54:42.348Z,1.20
2022-12-11T20:57:09.728Z,1.20
2022-12-11T20:59:40.192Z,1.10
2022-12-11T21:02:08.597Z,1.10
2022-12-11T21:04:41.043Z,1.10
2022-12-11T21:07:09.392Z,1.00
2022-12-11T21:09:36.995Z,1.10
2022-12-11T21:12:04.974Z,1.10
2022-12-11T21:14:32.100Z,1.10
2022-12-11T21:16:59.363Z,1.10
2022-12-11T21:19:26.331Z,1.10
2022-12-11T21:21:53.226Z,1.20
2022-12-11T21:24:26.611Z,1.20
2022-12-11T21:26:57.797Z,1.20
2022-12-11T21:29:26.492Z,1.20
2022-12-11T21:31:53.542Z,1.20
2022-12-11T21:34:25.528Z,1.20
2022-12-11T21:36:57.139Z,1.20
2022-12-11T21:39:25.560Z,1.20
2022-12-11T21:41:52.475Z,1.10
2022-12-11T21:47:06.682Z,1.20
2022-12-11T21:49:33.650Z,1.20
2022-12-11T21:52:00.582Z,1.20
2022-12-11T21:54:27.545Z,1.20
2022-12-11T21:56:54.743Z,1.20
2022-12-11T21:59:21.661Z,1.20
2022-12-11T22:01:48.601Z,1.20
2022-12-11T22:04:15.845Z,1.20
2022-12-11T22:06:43.661Z,1.20
2022-12-11T22:09:12.612Z,1.20
2022-12-11T22:11:40.750Z,1.10
2022-12-11T22:14:07.869Z,1.20
2022-12-11T22:16:35.121Z,1.20
2022-12-11T22:19:02.280Z,1.20
2022-12-11T22:21:29.333Z,1.20
2022-12-11T22:23:56.389Z,1.20
2022-12-11T22:26:25.143Z,1.20
2022-12-11T22:28:52.629Z,1.20
2022-12-11T22:31:22.353Z,1.30
2022-12-11T22:33:50.157Z,1.20
2022-12-11T22:36:20.286Z,1.20
2022-12-11T22:38:47.561Z,1.30
2022-12-11T22:41:31.996Z,1.30
2022-12-11T22:43:59.056Z,1.20
2022-12-11T22:46:27.943Z,1.10
2022-12-11T22:48:55.139Z,1.10
2022-12-11T22:51:22.894Z,1.10
2022-12-11T22:53:49.806Z,1.00
2022-12-11T22:56:17.292Z,1.00
2022-12-11T22:58:44.183Z,1.10
2022-12-11T23:01:13.616Z,1.00
2022-12-11T23:03:40.692Z,1.10
2022-12-11T23:06:09.308Z,1.10
2022-12-11T23:08:36.729Z,1.00
2022-12-11T23:11:12.244Z,1.00
2022-12-11T23:13:39.191Z,1.00
2022-12-11T23:16:06.767Z,0.90
2022-12-11T23:18:33.690Z,0.90
2022-12-11T23:21:00.722Z,0.90
2022-12-11T23:23:27.896Z,1.00
2022-12-11T23:25:55.672Z,1.00
2022-12-11T23:28:23.096Z,0.90
2022-12-11T23:30:50.194Z,1.00
2022-12-11T23:33:17.160Z,1.00
2022-12-11T23:35:44.087Z,1.00
2022-12-11T23:38:11.068Z,0.90
2022-12-11T23:40:37.980Z,0.90
2022-12-11T23:43:04.909Z,0.90
2022-12-11T23:45:32.119Z,0.80
2022-12-11T23:47:59.081Z,0.90
2022-12-11T23:50:26.165Z,0.90
2022-12-11T23:52:53.320Z,1.00
2022-12-11T23:55:20.875Z,1.00
2022-12-11T23:57:48.177Z,1.00
